sensor_id;sensor_type;location;lat;lon;timestamp;pressure;altitude;pressure_sealevel;temperature;humidity
57827;BME280;43656;57.746;11.780;2023-08-06T00:00:02;100986.47;;;16.78;100.00
57827;BME280;43656;57.746;11.780;2023-08-06T00:02:28;100989.19;;;16.78;100.00
57827;BME280;43656;57.746;11.780;2023-08-06T00:04:53;100972.38;;;16.58;100.00
57827;BME280;43656;57.746;11.780;2023-08-06T00:07:19;100994.34;;;16.68;100.00
57827;BME280;43656;57.746;11.780;2023-08-06T00:09:44;100933.72;;;16.32;100.00
57827;BME280;43656;57.746;11.780;2023-08-06T00:12:09;100977.47;;;16.66;100.00
57827;BME280;43656;57.746;11.780;2023-08-06T00:14:35;100929.97;;;16.33;100.00
57827;BME280;43656;57.746;11.780;2023-08-06T00:17:00;100991.75;;;16.61;100.00
57827;BME280;43656;57.746;11.780;2023-08-06T00:19:26;100987.63;;;16.59;100.00
57827;BME280;43656;57.746;11.780;2023-08-06T00:21:51;100985.97;;;16.58;100.00
57827;BME280;43656;57.746;11.780;2023-08-06T00:24:16;100977.00;;;16.57;100.00
57827;BME280;43656;57.746;11.780;2023-08-06T00:26:42;100972.28;;;16.53;100.00
57827;BME280;43656;57.746;11.780;2023-08-06T00:29:07;100971.91;;;16.49;100.00
57827;BME280;43656;57.746;11.780;2023-08-06T00:31:32;100976.75;;;16.47;100.00
57827;BME280;43656;57.746;11.780;2023-08-06T00:33:58;100971.66;;;16.51;100.00
57827;BME280;43656;57.746;11.780;2023-08-06T00:36:23;100970.03;;;16.50;100.00
57827;BME280;43656;57.746;11.780;2023-08-06T00:38:48;100973.22;;;16.47;100.00
57827;BME280;43656;57.746;11.780;2023-08-06T00:41:14;100929.25;;;16.26;100.00
57827;BME280;43656;57.746;11.780;2023-08-06T00:43:39;100969.06;;;16.44;100.00
57827;BME280;43656;57.746;11.780;2023-08-06T00:46:05;100969.53;;;16.41;100.00
57827;BME280;43656;57.746;11.780;2023-08-06T00:48:31;100936.19;;;16.22;100.00
57827;BME280;43656;57.746;11.780;2023-08-06T00:50:56;100964.00;;;16.36;100.00
57827;BME280;43656;57.746;11.780;2023-08-06T00:53:22;100956.19;;;16.39;100.00
57827;BME280;43656;57.746;11.780;2023-08-06T00:55:48;100955.13;;;16.40;100.00
57827;BME280;43656;57.746;11.780;2023-08-06T00:58:14;100963.28;;;16.40;100.00
57827;BME280;43656;57.746;11.780;2023-08-06T01:00:41;100953.00;;;16.42;100.00
57827;BME280;43656;57.746;11.780;2023-08-06T01:03:06;100945.22;;;16.46;100.00
57827;BME280;43656;57.746;11.780;2023-08-06T01:05:31;100934.13;;;16.36;100.00
57827;BME280;43656;57.746;11.780;2023-08-06T01:08:28;100953.22;;;16.41;100.00
57827;BME280;43656;57.746;11.780;2023-08-06T01:13:34;100961.63;;;16.39;100.00
57827;BME280;43656;57.746;11.780;2023-08-06T01:16:03;100947.91;;;16.34;100.00
57827;BME280;43656;57.746;11.780;2023-08-06T01:18:30;100952.16;;;16.30;100.00
57827;BME280;43656;57.746;11.780;2023-08-06T01:20:56;100947.66;;;16.24;100.00
57827;BME280;43656;57.746;11.780;2023-08-06T01:23:21;100922.09;;;16.02;100.00
57827;BME280;43656;57.746;11.780;2023-08-06T01:28:23;100939.88;;;16.16;100.00
57827;BME280;43656;57.746;11.780;2023-08-06T01:30:55;100916.56;;;15.96;100.00
57827;BME280;43656;57.746;11.780;2023-08-06T01:33:22;100912.72;;;15.86;100.00
57827;BME280;43656;57.746;11.780;2023-08-06T01:35:49;100898.22;;;15.80;100.00
57827;BME280;43656;57.746;11.780;2023-08-06T01:38:15;100915.13;;;15.94;100.00
57827;BME280;43656;57.746;11.780;2023-08-06T01:40:41;100941.25;;;16.07;100.00
57827;BME280;43656;57.746;11.780;2023-08-06T01:43:06;100939.81;;;16.04;100.00
57827;BME280;43656;57.746;11.780;2023-08-06T01:45:32;100943.34;;;16.05;100.00
57827;BME280;43656;57.746;11.780;2023-08-06T01:47:58;100931.31;;;16.01;100.00
57827;BME280;43656;57.746;11.780;2023-08-06T01:50:23;100931.06;;;15.90;100.00
57827;BME280;43656;57.746;11.780;2023-08-06T01:52:49;100945.25;;;16.04;100.00
57827;BME280;43656;57.746;11.780;2023-08-06T01:55:14;100950.44;;;16.06;100.00
57827;BME280;43656;57.746;11.780;2023-08-06T01:57:40;100947.50;;;16.07;100.00
57827;BME280;43656;57.746;11.780;2023-08-06T02:00:05;100952.78;;;16.02;100.00
57827;BME280;43656;57.746;11.780;2023-08-06T02:02:31;100945.34;;;15.97;100.00
57827;BME280;43656;57.746;11.780;2023-08-06T02:04:56;100940.84;;;15.91;100.00
57827;BME280;43656;57.746;11.780;2023-08-06T02:07:23;100920.50;;;15.82;100.00
57827;BME280;43656;57.746;11.780;2023-08-06T02:09:48;100950.78;;;15.97;100.00
57827;BME280;43656;57.746;11.780;2023-08-06T02:12:14;100924.44;;;15.86;100.00
57827;BME280;43656;57.746;11.780;2023-08-06T02:14:39;100948.06;;;15.97;100.00
57827;BME280;43656;57.746;11.780;2023-08-06T02:17:04;100939.75;;;15.81;100.00
57827;BME280;43656;57.746;11.780;2023-08-06T02:19:30;100949.44;;;15.88;100.00
57827;BME280;43656;57.746;11.780;2023-08-06T02:21:56;100950.16;;;15.84;100.00
57827;BME280;43656;57.746;11.780;2023-08-06T02:24:21;100955.78;;;15.82;100.00
57827;BME280;43656;57.746;11.780;2023-08-06T02:26:46;100960.63;;;15.80;100.00
57827;BME280;43656;57.746;11.780;2023-08-06T02:29:14;100973.13;;;15.81;100.00
57827;BME280;43656;57.746;11.780;2023-08-06T02:31:39;100975.63;;;15.83;100.00
57827;BME280;43656;57.746;11.780;2023-08-06T02:34:05;100964.25;;;15.74;100.00
57827;BME280;43656;57.746;11.780;2023-08-06T02:36:30;100975.16;;;15.86;100.00
57827;BME280;43656;57.746;11.780;2023-08-06T02:38:56;100943.28;;;15.63;100.00
57827;BME280;43656;57.746;11.780;2023-08-06T02:41:21;100949.78;;;15.62;100.00
57827;BME280;43656;57.746;11.780;2023-08-06T02:43:47;100975.94;;;15.74;100.00
57827;BME280;43656;57.746;11.780;2023-08-06T02:46:12;100983.72;;;15.71;100.00
57827;BME280;43656;57.746;11.780;2023-08-06T02:48:38;100986.47;;;15.64;100.00
57827;BME280;43656;57.746;11.780;2023-08-06T02:51:03;100975.78;;;15.51;100.00
57827;BME280;43656;57.746;11.780;2023-08-06T02:53:29;100989.03;;;15.59;100.00
57827;BME280;43656;57.746;11.780;2023-08-06T02:55:54;100983.03;;;15.57;100.00
57827;BME280;43656;57.746;11.780;2023-08-06T02:58:20;100962.31;;;15.44;100.00
57827;BME280;43656;57.746;11.780;2023-08-06T03:01:07;100968.94;;;15.48;100.00
57827;BME280;43656;57.746;11.780;2023-08-06T03:03:33;100973.69;;;15.53;100.00
57827;BME280;43656;57.746;11.780;2023-08-06T03:05:59;100983.69;;;15.52;100.00
57827;BME280;43656;57.746;11.780;2023-08-06T03:08:25;100987.25;;;15.53;100.00
57827;BME280;43656;57.746;11.780;2023-08-06T03:10:51;100988.91;;;15.54;100.00
57827;BME280;43656;57.746;11.780;2023-08-06T03:13:17;100991.38;;;15.56;100.00
57827;BME280;43656;57.746;11.780;2023-08-06T03:15:43;100995.75;;;15.57;100.00
57827;BME280;43656;57.746;11.780;2023-08-06T03:18:08;100983.09;;;15.50;100.00
57827;BME280;43656;57.746;11.780;2023-08-06T03:20:34;100959.31;;;15.34;100.00
57827;BME280;43656;57.746;11.780;2023-08-06T03:22:59;100993.56;;;15.47;100.00
57827;BME280;43656;57.746;11.780;2023-08-06T03:25:24;100980.09;;;15.40;100.00
57827;BME280;43656;57.746;11.780;2023-08-06T03:27:50;100977.59;;;15.39;100.00
57827;BME280;43656;57.746;11.780;2023-08-06T03:30:15;100989.44;;;15.44;100.00
57827;BME280;43656;57.746;11.780;2023-08-06T03:32:41;100983.38;;;15.42;100.00
57827;BME280;43656;57.746;11.780;2023-08-06T03:35:07;100970.16;;;15.34;100.00
57827;BME280;43656;57.746;11.780;2023-08-06T03:37:34;100987.34;;;15.46;100.00
57827;BME280;43656;57.746;11.780;2023-08-06T03:39:59;100988.59;;;15.44;100.00
57827;BME280;43656;57.746;11.780;2023-08-06T03:42:25;100987.91;;;15.48;100.00
57827;BME280;43656;57.746;11.780;2023-08-06T03:44:50;100975.03;;;15.44;100.00
57827;BME280;43656;57.746;11.780;2023-08-06T03:47:16;100974.06;;;15.38;100.00
57827;BME280;43656;57.746;11.780;2023-08-06T03:49:41;100993.78;;;15.64;100.00
57827;BME280;43656;57.746;11.780;2023-08-06T03:52:07;101000.97;;;15.77;100.00
57827;BME280;43656;57.746;11.780;2023-08-06T03:54:32;100994.66;;;15.94;100.00
57827;BME280;43656;57.746;11.780;2023-08-06T03:56:59;100948.59;;;15.76;100.00
57827;BME280;43656;57.746;11.780;2023-08-06T03:59:24;100991.19;;;16.17;100.00
57827;BME280;43656;57.746;11.780;2023-08-06T04:01:50;100987.50;;;16.54;100.00
57827;BME280;43656;57.746;11.780;2023-08-06T04:04:15;100990.94;;;16.61;100.00
57827;BME280;43656;57.746;11.780;2023-08-06T04:06:40;100987.16;;;16.74;100.00
57827;BME280;43656;57.746;11.780;2023-08-06T04:09:06;100946.50;;;16.55;100.00
57827;BME280;43656;57.746;11.780;2023-08-06T04:11:31;100978.81;;;16.99;100.00
57827;BME280;43656;57.746;11.780;2023-08-06T04:13:57;100976.72;;;17.53;96.99
57827;BME280;43656;57.746;11.780;2023-08-06T04:16:22;100974.13;;;17.87;95.00
57827;BME280;43656;57.746;11.780;2023-08-06T04:18:47;100974.94;;;18.16;92.93
57827;BME280;43656;57.746;11.780;2023-08-06T04:21:13;100965.63;;;18.12;93.20
57827;BME280;43656;57.746;11.780;2023-08-06T04:23:38;100968.19;;;18.18;92.96
57827;BME280;43656;57.746;11.780;2023-08-06T04:26:03;100973.22;;;18.43;91.82
57827;BME280;43656;57.746;11.780;2023-08-06T04:28:29;100964.50;;;18.58;91.22
57827;BME280;43656;57.746;11.780;2023-08-06T04:30:55;100963.06;;;18.55;90.95
57827;BME280;43656;57.746;11.780;2023-08-06T04:33:20;100961.91;;;18.68;90.28
57827;BME280;43656;57.746;11.780;2023-08-06T04:35:46;100965.06;;;18.77;89.88
57827;BME280;43656;57.746;11.780;2023-08-06T04:38:11;100962.66;;;19.19;87.76
57827;BME280;43656;57.746;11.780;2023-08-06T04:40:36;100964.50;;;19.80;84.56
57827;BME280;43656;57.746;11.780;2023-08-06T04:43:02;100966.31;;;19.96;83.19
57827;BME280;43656;57.746;11.780;2023-08-06T04:45:28;100951.44;;;20.41;80.68
57827;BME280;43656;57.746;11.780;2023-08-06T04:47:53;100962.94;;;20.75;78.76
57827;BME280;43656;57.746;11.780;2023-08-06T04:50:20;100964.59;;;20.44;80.18
57827;BME280;43656;57.746;11.780;2023-08-06T04:52:45;100924.06;;;19.77;82.20
57827;BME280;43656;57.746;11.780;2023-08-06T04:55:11;100962.56;;;20.02;82.05
57827;BME280;43656;57.746;11.780;2023-08-06T04:57:36;100957.72;;;20.09;81.10
57827;BME280;43656;57.746;11.780;2023-08-06T05:00:02;100958.66;;;20.52;78.79
57827;BME280;43656;57.746;11.780;2023-08-06T05:02:28;100952.66;;;20.55;78.19
57827;BME280;43656;57.746;11.780;2023-08-06T05:04:53;100953.03;;;20.69;77.46
57827;BME280;43656;57.746;11.780;2023-08-06T05:07:18;100947.72;;;20.95;75.89
57827;BME280;43656;57.746;11.780;2023-08-06T05:09:44;100954.47;;;20.77;76.71
57827;BME280;43656;57.746;11.780;2023-08-06T05:12:09;100955.69;;;20.96;76.40
57827;BME280;43656;57.746;11.780;2023-08-06T05:14:34;100950.00;;;21.08;76.11
57827;BME280;43656;57.746;11.780;2023-08-06T05:17:00;100951.13;;;20.37;78.59
57827;BME280;43656;57.746;11.780;2023-08-06T05:19:27;100938.88;;;20.13;80.24
57827;BME280;43656;57.746;11.780;2023-08-06T05:21:52;100941.28;;;20.69;78.36
57827;BME280;43656;57.746;11.780;2023-08-06T05:24:18;100944.75;;;20.54;78.51
57827;BME280;43656;57.746;11.780;2023-08-06T05:26:43;100938.94;;;20.50;78.63
57827;BME280;43656;57.746;11.780;2023-08-06T05:29:11;100940.44;;;20.36;80.00
57827;BME280;43656;57.746;11.780;2023-08-06T05:31:37;100928.69;;;20.30;80.28
57827;BME280;43656;57.746;11.780;2023-08-06T05:34:02;100932.16;;;20.26;80.85
57827;BME280;43656;57.746;11.780;2023-08-06T05:36:28;100935.34;;;20.12;81.96
57827;BME280;43656;57.746;11.780;2023-08-06T05:38:53;100927.47;;;19.89;83.56
57827;BME280;43656;57.746;11.780;2023-08-06T05:41:18;100923.22;;;19.71;84.51
57827;BME280;43656;57.746;11.780;2023-08-06T05:43:45;100925.00;;;19.87;84.49
57827;BME280;43656;57.746;11.780;2023-08-06T05:46:10;100927.25;;;19.68;85.37
57827;BME280;43656;57.746;11.780;2023-08-06T05:48:35;100934.47;;;19.80;85.49
57827;BME280;43656;57.746;11.780;2023-08-06T05:51:01;100920.56;;;19.81;84.94
57827;BME280;43656;57.746;11.780;2023-08-06T05:53:26;100928.09;;;19.69;85.26
57827;BME280;43656;57.746;11.780;2023-08-06T05:55:52;100934.06;;;19.93;84.86
57827;BME280;43656;57.746;11.780;2023-08-06T05:58:17;100888.56;;;19.77;84.35
57827;BME280;43656;57.746;11.780;2023-08-06T06:00:45;100924.97;;;19.60;85.77
57827;BME280;43656;57.746;11.780;2023-08-06T06:03:10;100928.47;;;19.56;85.70
57827;BME280;43656;57.746;11.780;2023-08-06T06:05:37;100918.88;;;19.53;85.57
57827;BME280;43656;57.746;11.780;2023-08-06T06:08:04;100923.50;;;19.75;85.09
57827;BME280;43656;57.746;11.780;2023-08-06T06:10:29;100925.63;;;19.94;84.28
57827;BME280;43656;57.746;11.780;2023-08-06T06:12:55;100936.03;;;19.70;85.65
57827;BME280;43656;57.746;11.780;2023-08-06T06:15:20;100929.94;;;19.63;86.33
57827;BME280;43656;57.746;11.780;2023-08-06T06:17:46;100929.19;;;19.68;86.06
57827;BME280;43656;57.746;11.780;2023-08-06T06:20:12;100917.22;;;19.74;85.59
57827;BME280;43656;57.746;11.780;2023-08-06T06:22:37;100909.34;;;19.78;85.38
57827;BME280;43656;57.746;11.780;2023-08-06T06:25:03;100901.56;;;19.64;85.96
57827;BME280;43656;57.746;11.780;2023-08-06T06:27:28;100900.66;;;19.59;85.89
57827;BME280;43656;57.746;11.780;2023-08-06T06:29:54;100904.84;;;19.66;86.32
57827;BME280;43656;57.746;11.780;2023-08-06T06:32:20;100907.56;;;19.66;86.35
57827;BME280;43656;57.746;11.780;2023-08-06T06:34:46;100909.66;;;19.81;86.17
57827;BME280;43656;57.746;11.780;2023-08-06T06:37:11;100892.34;;;19.70;86.10
57827;BME280;43656;57.746;11.780;2023-08-06T06:39:37;100909.91;;;20.07;85.79
57827;BME280;43656;57.746;11.780;2023-08-06T06:42:02;100912.94;;;20.10;85.64
57827;BME280;43656;57.746;11.780;2023-08-06T06:44:28;100914.19;;;20.30;85.13
57827;BME280;43656;57.746;11.780;2023-08-06T06:46:53;100897.47;;;20.26;84.58
57827;BME280;43656;57.746;11.780;2023-08-06T06:49:19;100905.84;;;20.47;84.15
57827;BME280;43656;57.746;11.780;2023-08-06T06:51:44;100901.00;;;20.54;83.98
57827;BME280;43656;57.746;11.780;2023-08-06T06:54:09;100893.38;;;20.61;83.45
57827;BME280;43656;57.746;11.780;2023-08-06T06:56:35;100905.44;;;20.33;84.27
57827;BME280;43656;57.746;11.780;2023-08-06T06:59:00;100889.97;;;20.49;83.65
57827;BME280;43656;57.746;11.780;2023-08-06T07:01:25;100912.75;;;20.54;83.47
57827;BME280;43656;57.746;11.780;2023-08-06T07:03:51;100908.28;;;20.43;83.54
57827;BME280;43656;57.746;11.780;2023-08-06T07:06:16;100893.16;;;20.68;82.18
57827;BME280;43656;57.746;11.780;2023-08-06T07:08:43;100909.84;;;20.71;81.64
57827;BME280;43656;57.746;11.780;2023-08-06T07:11:09;100888.63;;;20.88;80.83
57827;BME280;43656;57.746;11.780;2023-08-06T07:13:34;100892.88;;;20.64;80.43
57827;BME280;43656;57.746;11.780;2023-08-06T07:16:00;100892.41;;;20.08;82.52
57827;BME280;43656;57.746;11.780;2023-08-06T07:18:25;100896.41;;;20.27;81.54
57827;BME280;43656;57.746;11.780;2023-08-06T07:20:52;100894.44;;;20.23;81.82
57827;BME280;43656;57.746;11.780;2023-08-06T07:23:20;100872.28;;;20.19;80.64
57827;BME280;43656;57.746;11.780;2023-08-06T07:25:46;100868.25;;;20.27;80.44
57827;BME280;43656;57.746;11.780;2023-08-06T07:28:13;100876.84;;;20.46;80.65
57827;BME280;43656;57.746;11.780;2023-08-06T07:30:39;100844.56;;;20.37;79.49
57827;BME280;43656;57.746;11.780;2023-08-06T07:33:05;100869.53;;;20.51;78.80
57827;BME280;43656;57.746;11.780;2023-08-06T07:35:30;100871.50;;;20.61;78.67
57827;BME280;43656;57.746;11.780;2023-08-06T07:37:55;100875.59;;;21.06;76.85
57827;BME280;43656;57.746;11.780;2023-08-06T07:40:21;100864.88;;;20.99;77.25
57827;BME280;43656;57.746;11.780;2023-08-06T07:42:46;100879.59;;;20.83;77.34
57827;BME280;43656;57.746;11.780;2023-08-06T07:45:11;100880.84;;;20.65;77.33
57827;BME280;43656;57.746;11.780;2023-08-06T07:47:37;100865.53;;;20.64;76.94
57827;BME280;43656;57.746;11.780;2023-08-06T07:50:02;100834.34;;;20.65;76.30
57827;BME280;43656;57.746;11.780;2023-08-06T07:52:28;100875.88;;;21.09;75.64
57827;BME280;43656;57.746;11.780;2023-08-06T07:54:53;100867.94;;;21.18;74.62
57827;BME280;43656;57.746;11.780;2023-08-06T07:57:18;100845.34;;;21.43;73.83
57827;BME280;43656;57.746;11.780;2023-08-06T07:59:44;100853.47;;;21.23;72.81
57827;BME280;43656;57.746;11.780;2023-08-06T08:02:09;100851.28;;;21.20;72.88
57827;BME280;43656;57.746;11.780;2023-08-06T08:04:35;100861.22;;;21.51;72.53
57827;BME280;43656;57.746;11.780;2023-08-06T08:07:00;100859.38;;;21.83;71.76
57827;BME280;43656;57.746;11.780;2023-08-06T08:09:25;100860.50;;;22.17;71.43
57827;BME280;43656;57.746;11.780;2023-08-06T08:11:51;100871.19;;;22.29;70.71
57827;BME280;43656;57.746;11.780;2023-08-06T08:14:17;100864.56;;;22.04;69.52
57827;BME280;43656;57.746;11.780;2023-08-06T08:16:43;100870.06;;;21.94;69.27
57827;BME280;43656;57.746;11.780;2023-08-06T08:19:08;100873.34;;;21.91;68.83
57827;BME280;43656;57.746;11.780;2023-08-06T08:21:35;100871.97;;;22.04;67.89
57827;BME280;43656;57.746;11.780;2023-08-06T08:24:01;100874.75;;;22.30;67.44
57827;BME280;43656;57.746;11.780;2023-08-06T08:26:26;100876.34;;;21.85;66.92
57827;BME280;43656;57.746;11.780;2023-08-06T08:28:53;100878.81;;;21.76;66.92
57827;BME280;43656;57.746;11.780;2023-08-06T08:31:19;100872.53;;;21.96;66.45
57827;BME280;43656;57.746;11.780;2023-08-06T08:33:44;100861.00;;;21.78;67.43
57827;BME280;43656;57.746;11.780;2023-08-06T08:36:09;100866.19;;;21.75;66.46
57827;BME280;43656;57.746;11.780;2023-08-06T08:38:35;100859.91;;;22.00;65.86
57827;BME280;43656;57.746;11.780;2023-08-06T08:41:00;100857.72;;;21.92;64.81
57827;BME280;43656;57.746;11.780;2023-08-06T08:43:26;100837.44;;;21.88;64.89
57827;BME280;43656;57.746;11.780;2023-08-06T08:45:53;100843.19;;;22.12;64.43
57827;BME280;43656;57.746;11.780;2023-08-06T08:48:24;100850.34;;;22.23;64.36
57827;BME280;43656;57.746;11.780;2023-08-06T08:50:50;100845.94;;;21.86;63.37
57827;BME280;43656;57.746;11.780;2023-08-06T08:53:16;100832.53;;;21.79;62.95
57827;BME280;43656;57.746;11.780;2023-08-06T08:55:43;100853.63;;;21.99;62.59
57827;BME280;43656;57.746;11.780;2023-08-06T08:58:10;100841.81;;;21.78;63.84
57827;BME280;43656;57.746;11.780;2023-08-06T09:00:35;100855.00;;;22.02;63.14
57827;BME280;43656;57.746;11.780;2023-08-06T09:03:02;100853.59;;;21.94;63.73
57827;BME280;43656;57.746;11.780;2023-08-06T09:05:31;100861.88;;;22.20;63.64
57827;BME280;43656;57.746;11.780;2023-08-06T09:08:02;100849.78;;;22.11;63.49
57827;BME280;43656;57.746;11.780;2023-08-06T09:10:28;100828.13;;;22.14;62.98
57827;BME280;43656;57.746;11.780;2023-08-06T09:12:55;100845.09;;;22.32;62.30
57827;BME280;43656;57.746;11.780;2023-08-06T09:15:24;100843.19;;;22.37;61.74
57827;BME280;43656;57.746;11.780;2023-08-06T09:17:49;100834.72;;;22.39;61.17
57827;BME280;43656;57.746;11.780;2023-08-06T09:20:15;100838.44;;;22.73;61.42
57827;BME280;43656;57.746;11.780;2023-08-06T09:22:41;100834.00;;;22.93;61.18
57827;BME280;43656;57.746;11.780;2023-08-06T09:25:07;100831.34;;;22.57;61.75
57827;BME280;43656;57.746;11.780;2023-08-06T09:27:37;100820.97;;;22.49;61.06
57827;BME280;43656;57.746;11.780;2023-08-06T09:30:03;100827.00;;;22.46;61.25
57827;BME280;43656;57.746;11.780;2023-08-06T09:32:46;100822.63;;;22.35;62.90
57827;BME280;43656;57.746;11.780;2023-08-06T09:35:16;100825.59;;;22.54;64.90
57827;BME280;43656;57.746;11.780;2023-08-06T09:37:42;100815.22;;;22.40;64.67
57827;BME280;43656;57.746;11.780;2023-08-06T09:40:27;100832.28;;;22.22;65.14
57827;BME280;43656;57.746;11.780;2023-08-06T09:42:54;100825.38;;;22.35;65.11
57827;BME280;43656;57.746;11.780;2023-08-06T09:45:19;100795.81;;;21.75;65.36
57827;BME280;43656;57.746;11.780;2023-08-06T09:47:47;100826.50;;;21.93;64.97
57827;BME280;43656;57.746;11.780;2023-08-06T09:50:19;100818.81;;;22.00;65.22
57827;BME280;43656;57.746;11.780;2023-08-06T09:52:47;100759.94;;;21.56;65.48
57827;BME280;43656;57.746;11.780;2023-08-06T09:55:13;100828.69;;;22.26;64.46
57827;BME280;43656;57.746;11.780;2023-08-06T09:57:42;100812.50;;;22.30;64.29
57827;BME280;43656;57.746;11.780;2023-08-06T10:00:11;100805.38;;;22.14;63.72
57827;BME280;43656;57.746;11.780;2023-08-06T10:02:38;100808.41;;;22.17;63.19
57827;BME280;43656;57.746;11.780;2023-08-06T10:05:05;100797.44;;;22.07;62.40
57827;BME280;43656;57.746;11.780;2023-08-06T10:07:30;100806.19;;;22.40;61.99
57827;BME280;43656;57.746;11.780;2023-08-06T10:09:56;100817.16;;;22.24;61.56
57827;BME280;43656;57.746;11.780;2023-08-06T10:12:23;100800.44;;;22.31;61.44
57827;BME280;43656;57.746;11.780;2023-08-06T10:14:50;100800.19;;;22.22;61.70
57827;BME280;43656;57.746;11.780;2023-08-06T10:17:16;100804.56;;;22.23;61.10
57827;BME280;43656;57.746;11.780;2023-08-06T10:19:42;100814.13;;;22.31;61.32
57827;BME280;43656;57.746;11.780;2023-08-06T10:22:12;100793.28;;;22.45;61.60
57827;BME280;43656;57.746;11.780;2023-08-06T10:24:57;100775.69;;;22.51;58.93
57827;BME280;43656;57.746;11.780;2023-08-06T10:27:32;100800.59;;;22.75;59.88
57827;BME280;43656;57.746;11.780;2023-08-06T10:30:27;100794.88;;;22.62;61.13
57827;BME280;43656;57.746;11.780;2023-08-06T10:32:55;100789.41;;;22.57;61.09
57827;BME280;43656;57.746;11.780;2023-08-06T10:38:04;100785.56;;;22.58;60.76
57827;BME280;43656;57.746;11.780;2023-08-06T10:40:31;100788.94;;;22.24;61.46
57827;BME280;43656;57.746;11.780;2023-08-06T10:43:00;100749.22;;;22.01;60.70
57827;BME280;43656;57.746;11.780;2023-08-06T10:45:26;100766.75;;;22.20;61.04
57827;BME280;43656;57.746;11.780;2023-08-06T10:47:55;100760.94;;;22.37;59.88
57827;BME280;43656;57.746;11.780;2023-08-06T10:50:21;100756.84;;;22.40;59.68
57827;BME280;43656;57.746;11.780;2023-08-06T10:52:47;100758.19;;;22.37;60.28
57827;BME280;43656;57.746;11.780;2023-08-06T10:55:13;100780.63;;;22.55;60.41
57827;BME280;43656;57.746;11.780;2023-08-06T10:57:39;100758.78;;;22.29;60.17
57827;BME280;43656;57.746;11.780;2023-08-06T11:00:06;100774.13;;;22.30;60.83
57827;BME280;43656;57.746;11.780;2023-08-06T11:02:34;100779.00;;;22.54;60.79
57827;BME280;43656;57.746;11.780;2023-08-06T11:05:09;100772.66;;;22.63;60.55
57827;BME280;43656;57.746;11.780;2023-08-06T11:07:36;100775.69;;;22.62;59.83
57827;BME280;43656;57.746;11.780;2023-08-06T11:10:03;100755.88;;;22.70;59.61
57827;BME280;43656;57.746;11.780;2023-08-06T11:12:29;100773.25;;;22.55;59.68
57827;BME280;43656;57.746;11.780;2023-08-06T11:14:55;100784.13;;;22.75;60.51
57827;BME280;43656;57.746;11.780;2023-08-06T11:17:21;100777.84;;;22.65;59.86
57827;BME280;43656;57.746;11.780;2023-08-06T11:19:46;100769.94;;;22.53;61.02
57827;BME280;43656;57.746;11.780;2023-08-06T11:22:12;100770.75;;;22.59;60.69
57827;BME280;43656;57.746;11.780;2023-08-06T11:24:37;100770.47;;;22.65;60.34
57827;BME280;43656;57.746;11.780;2023-08-06T11:27:11;100750.94;;;22.72;59.95
57827;BME280;43656;57.746;11.780;2023-08-06T11:29:37;100772.09;;;22.66;60.24
57827;BME280;43656;57.746;11.780;2023-08-06T11:32:04;100782.00;;;22.62;59.95
57827;BME280;43656;57.746;11.780;2023-08-06T11:34:30;100769.66;;;22.55;60.77
57827;BME280;43656;57.746;11.780;2023-08-06T11:36:57;100775.03;;;22.80;60.42
57827;BME280;43656;57.746;11.780;2023-08-06T11:39:25;100763.06;;;22.61;60.35
57827;BME280;43656;57.746;11.780;2023-08-06T11:41:50;100774.53;;;22.73;60.06
57827;BME280;43656;57.746;11.780;2023-08-06T11:44:19;100764.88;;;22.86;59.65
57827;BME280;43656;57.746;11.780;2023-08-06T11:46:55;100749.69;;;22.44;59.21
57827;BME280;43656;57.746;11.780;2023-08-06T11:49:48;100761.13;;;22.66;60.20
57827;BME280;43656;57.746;11.780;2023-08-06T11:52:19;100745.81;;;22.55;60.32
57827;BME280;43656;57.746;11.780;2023-08-06T11:54:59;100734.88;;;22.45;59.73
57827;BME280;43656;57.746;11.780;2023-08-06T11:57:28;100750.41;;;22.70;60.91
57827;BME280;43656;57.746;11.780;2023-08-06T11:59:54;100745.91;;;22.94;60.56
57827;BME280;43656;57.746;11.780;2023-08-06T12:02:21;100713.13;;;22.69;60.42
57827;BME280;43656;57.746;11.780;2023-08-06T12:05:21;100732.66;;;23.07;59.34
57827;BME280;43656;57.746;11.780;2023-08-06T12:07:50;100699.66;;;22.67;59.12
57827;BME280;43656;57.746;11.780;2023-08-06T12:10:16;100731.16;;;22.80;60.02
57827;BME280;43656;57.746;11.780;2023-08-06T12:12:42;100716.19;;;23.07;58.70
57827;BME280;43656;57.746;11.780;2023-08-06T12:15:09;100725.88;;;22.99;58.36
57827;BME280;43656;57.746;11.780;2023-08-06T12:17:36;100695.59;;;22.60;58.69
57827;BME280;43656;57.746;11.780;2023-08-06T12:20:03;100703.41;;;22.87;58.27
57827;BME280;43656;57.746;11.780;2023-08-06T12:22:30;100692.22;;;22.78;58.56
57827;BME280;43656;57.746;11.780;2023-08-06T12:25:00;100688.75;;;22.62;58.74
57827;BME280;43656;57.746;11.780;2023-08-06T12:27:26;100662.94;;;22.68;58.33
57827;BME280;43656;57.746;11.780;2023-08-06T12:29:51;100671.00;;;22.94;57.41
57827;BME280;43656;57.746;11.780;2023-08-06T12:32:17;100671.13;;;23.18;57.57
57827;BME280;43656;57.746;11.780;2023-08-06T12:34:43;100662.28;;;23.21;56.76
57827;BME280;43656;57.746;11.780;2023-08-06T12:37:08;100669.75;;;23.15;56.39
57827;BME280;43656;57.746;11.780;2023-08-06T12:39:35;100676.31;;;23.19;56.18